createdAt,value
2019-02-10T00:00:50.036Z,8.00
2019-02-10T00:03:20.344Z,8.00
2019-02-10T00:05:51.048Z,7.90
2019-02-10T00:08:21.684Z,7.90
2019-02-10T00:10:52.373Z,7.90
2019-02-10T00:13:27.402Z,7.80
2019-02-10T00:15:59.712Z,7.80
2019-02-10T00:18:31.341Z,7.90
2019-02-10T00:21:02.113Z,7.90
2019-02-10T00:23:32.843Z,7.90
2019-02-10T00:26:03.612Z,7.90
2019-02-10T00:28:34.831Z,7.80
2019-02-10T00:31:05.438Z,7.80
2019-02-10T00:33:36.048Z,7.90
2019-02-10T00:36:06.690Z,7.90
2019-02-10T00:38:37.494Z,7.90
2019-02-10T00:41:08.203Z,7.90
2019-02-10T00:43:38.952Z,8.00
2019-02-10T00:46:09.650Z,8.00
2019-02-10T00:48:40.498Z,8.10
2019-02-10T00:51:11.460Z,8.10
2019-02-10T00:53:41.994Z,8.10
2019-02-10T00:56:12.291Z,8.20
2019-02-10T00:58:43.119Z,8.20
2019-02-10T01:01:13.044Z,8.20
2019-02-10T01:03:44.177Z,8.20
2019-02-10T01:06:15.196Z,8.20
2019-02-10T01:08:45.719Z,8.20
2019-02-10T01:11:16.470Z,8.20
2019-02-10T01:13:47.260Z,8.20
2019-02-10T01:16:18.013Z,8.10
2019-02-10T01:19:11.050Z,8.10
2019-02-10T01:21:43.689Z,8.10
2019-02-10T01:24:14.272Z,8.10
2019-02-10T01:26:44.990Z,8.10
2019-02-10T01:29:15.440Z,8.10
2019-02-10T01:31:46.598Z,8.10
2019-02-10T01:34:17.203Z,8.10
2019-02-10T01:36:49.707Z,8.10
2019-02-10T01:39:23.753Z,8.10
2019-02-10T01:41:54.767Z,8.20
2019-02-10T01:44:25.236Z,8.20
2019-02-10T01:46:55.913Z,8.20
2019-02-10T01:49:26.686Z,8.20
2019-02-10T01:51:57.443Z,8.20
2019-02-10T01:54:27.747Z,8.20
2019-02-10T01:56:58.800Z,8.10
2019-02-10T01:59:29.183Z,8.10
2019-02-10T02:02:00.245Z,8.10
2019-02-10T02:04:30.898Z,8.10
2019-02-10T02:07:01.247Z,8.10
2019-02-10T02:09:31.991Z,8.00
2019-02-10T02:12:02.870Z,8.00
2019-02-10T02:14:33.829Z,8.00
2019-02-10T02:17:05.772Z,8.00
2019-02-10T02:19:37.253Z,8.00
2019-02-10T02:22:07.732Z,8.00
2019-02-10T02:24:38.067Z,8.00
2019-02-10T02:27:08.590Z,8.00
2019-02-10T02:29:39.036Z,8.00
2019-02-10T02:32:09.532Z,8.00
2019-02-10T02:34:40.132Z,8.00
2019-02-10T02:37:10.665Z,8.00
2019-02-10T02:39:41.039Z,8.00
2019-02-10T02:42:11.809Z,8.00
2019-02-10T02:44:42.325Z,7.90
2019-02-10T02:47:12.848Z,7.80
2019-02-10T02:49:43.440Z,7.70
2019-02-10T02:52:13.877Z,7.70
2019-02-10T02:54:44.434Z,7.60
2019-02-10T02:57:14.797Z,7.60
2019-02-10T02:59:45.292Z,7.60
2019-02-10T03:02:16.338Z,7.50
2019-02-10T03:04:47.040Z,7.50
2019-02-10T03:07:18.260Z,7.50
2019-02-10T03:09:49.199Z,7.50
2019-02-10T03:12:19.616Z,7.50
2019-02-10T03:14:50.149Z,7.40
2019-02-10T03:17:20.837Z,7.30
2019-02-10T03:19:51.578Z,7.20
2019-02-10T03:22:22.253Z,7.10
2019-02-10T03:24:53.505Z,7.00
2019-02-10T03:27:24.039Z,6.90
2019-02-10T03:29:54.565Z,6.90
2019-02-10T03:32:25.191Z,6.80
2019-02-10T03:34:55.435Z,6.80
2019-02-10T03:37:27.668Z,6.80
2019-02-10T03:39:58.611Z,6.70
2019-02-10T03:42:29.233Z,6.70
2019-02-10T03:44:59.912Z,6.60
2019-02-10T03:47:30.248Z,6.60
2019-02-10T03:50:00.742Z,6.50
2019-02-10T03:52:31.119Z,6.50
2019-02-10T03:55:01.709Z,6.50
2019-02-10T03:57:32.393Z,6.50
2019-02-10T04:00:03.139Z,6.50
2019-02-10T04:02:34.321Z,6.50
2019-02-10T04:05:04.808Z,6.50
2019-02-10T04:07:36.417Z,6.50
2019-02-10T04:10:07.554Z,6.40
2019-02-10T04:12:37.999Z,6.40
2019-02-10T04:15:09.742Z,6.40
2019-02-10T04:17:40.386Z,6.40
2019-02-10T04:20:10.843Z,6.40
2019-02-10T04:22:41.809Z,6.50
2019-02-10T04:25:12.499Z,6.50
2019-02-10T04:27:43.324Z,6.50
2019-02-10T04:30:14.088Z,6.60
2019-02-10T04:32:44.796Z,6.60
2019-02-10T04:35:15.498Z,6.60
2019-02-10T04:37:46.613Z,6.70
2019-02-10T04:40:16.666Z,6.70
2019-02-10T04:42:47.277Z,6.70
2019-02-10T04:45:17.790Z,6.70
2019-02-10T04:47:48.366Z,6.80
2019-02-10T04:50:18.966Z,6.80
2019-02-10T04:52:49.977Z,6.90
2019-02-10T04:55:20.922Z,6.90
2019-02-10T04:57:51.642Z,6.90
2019-02-10T05:00:21.746Z,6.90
2019-02-10T05:02:52.149Z,7.00
2019-02-10T05:05:22.605Z,7.00
2019-02-10T05:07:54.737Z,7.10
2019-02-10T05:10:25.528Z,7.20
2019-02-10T05:12:56.490Z,7.20
2019-02-10T05:15:26.984Z,7.30
2019-02-10T05:17:57.511Z,7.30
2019-02-10T05:20:28.156Z,7.30
2019-02-10T05:22:58.414Z,7.30
2019-02-10T05:25:28.961Z,7.20
2019-02-10T05:27:59.282Z,7.20
2019-02-10T05:30:29.890Z,7.20
2019-02-10T05:33:00.443Z,7.20
2019-02-10T05:35:30.797Z,7.20
2019-02-10T05:38:04.358Z,7.30
2019-02-10T05:40:33.820Z,7.30
2019-02-10T05:43:04.451Z,7.30
2019-02-10T05:45:34.829Z,7.30
2019-02-10T05:48:05.334Z,7.40
2019-02-10T05:50:35.704Z,7.40
2019-02-10T05:53:06.493Z,7.40
2019-02-10T05:55:36.451Z,7.40
2019-02-10T05:58:06.859Z,7.40
2019-02-10T06:00:37.192Z,7.40
2019-02-10T06:03:08.159Z,7.30
2019-02-10T06:05:38.668Z,7.30
2019-02-10T06:08:13.433Z,7.30
2019-02-10T06:10:41.125Z,7.30
2019-02-10T06:13:11.981Z,7.30
2019-02-10T06:15:42.479Z,7.40
2019-02-10T06:18:12.795Z,7.30
2019-02-10T06:20:43.055Z,7.30
2019-02-10T06:23:13.339Z,7.30
2019-02-10T06:25:43.598Z,7.30
2019-02-10T06:28:14.399Z,7.30
2019-02-10T06:30:45.085Z,7.20
2019-02-10T06:33:15.344Z,7.20
2019-02-10T06:35:45.923Z,7.20
2019-02-10T06:38:22.178Z,7.20
2019-02-10T06:40:49.552Z,7.20
2019-02-10T06:43:20.336Z,7.20
2019-02-10T06:45:50.862Z,7.20
2019-02-10T06:48:21.293Z,7.20
2019-02-10T06:50:51.977Z,7.20
2019-02-10T06:53:22.235Z,7.20
2019-02-10T06:55:52.737Z,7.30
2019-02-10T06:58:23.286Z,7.40
2019-02-10T07:01:17.551Z,7.40
2019-02-10T07:03:54.861Z,7.40
2019-02-10T07:06:25.895Z,7.40
2019-02-10T07:08:57.677Z,7.40
2019-02-10T07:11:28.092Z,7.40
2019-02-10T07:14:03.273Z,7.40
2019-02-10T07:16:52.489Z,7.40
2019-02-10T07:20:15.106Z,7.40
2019-02-10T07:23:26.535Z,7.50
2019-02-10T07:26:01.477Z,7.60
2019-02-10T07:28:46.307Z,7.60
2019-02-10T07:31:21.101Z,7.70
2019-02-10T07:34:20.434Z,7.70
2019-02-10T07:37:25.886Z,7.70
2019-02-10T07:40:37.377Z,7.70
2019-02-10T07:43:23.502Z,7.60
2019-02-10T07:46:15.067Z,7.60
2019-02-10T07:49:27.379Z,7.60
2019-02-10T07:52:15.539Z,7.60
2019-02-10T07:55:09.367Z,7.60
2019-02-10T07:58:01.606Z,7.70
2019-02-10T08:01:20.409Z,7.80
2019-02-10T08:04:29.459Z,7.80
2019-02-10T08:07:28.722Z,7.90
2019-02-10T08:10:33.217Z,8.00
2019-02-10T08:13:26.262Z,8.10
2019-02-10T08:16:40.850Z,8.10
2019-02-10T08:19:43.322Z,8.20
2019-02-10T08:22:51.455Z,8.20
2019-02-10T08:25:54.156Z,8.30
2019-02-10T08:29:07.165Z,8.40
2019-02-10T08:32:14.486Z,8.60
2019-02-10T08:35:27.579Z,8.70
2019-02-10T08:38:27.968Z,8.90
2019-02-10T08:41:29.626Z,9.00
2019-02-10T08:44:46.819Z,9.10
2019-02-10T08:47:33.810Z,9.20
2019-02-10T08:50:49.072Z,9.30
2019-02-10T08:53:26.806Z,9.40
2019-02-10T08:55:57.203Z,9.40
2019-02-10T08:58:27.723Z,9.50
2019-02-10T09:00:58.185Z,9.50
2019-02-10T09:03:28.869Z,9.60
2019-02-10T09:05:59.472Z,9.60
2019-02-10T09:08:29.802Z,9.60
2019-02-10T09:11:00.484Z,9.60
2019-02-10T09:13:30.873Z,9.60
2019-02-10T09:16:01.504Z,9.60
2019-02-10T09:18:32.274Z,9.60
2019-02-10T09:21:03.050Z,9.70
2019-02-10T09:23:33.358Z,9.70
2019-02-10T09:26:04.188Z,9.80
2019-02-10T09:28:35.065Z,9.80
2019-02-10T09:31:05.827Z,9.90
2019-02-10T09:33:36.750Z,9.90
2019-02-10T09:36:07.363Z,9.90
2019-02-10T09:38:38.242Z,10.00
2019-02-10T09:41:09.281Z,10.00
2019-02-10T09:43:40.300Z,10.00
2019-02-10T09:46:10.642Z,10.00
2019-02-10T09:48:41.079Z,10.00
2019-02-10T09:51:11.222Z,10.00
2019-02-10T09:53:41.735Z,10.00
2019-02-10T09:56:12.096Z,10.00
2019-02-10T09:58:42.902Z,10.00
2019-02-10T10:01:14.739Z,10.10
2019-02-10T10:03:45.421Z,10.20
2019-02-10T10:06:15.946Z,10.30
2019-02-10T10:08:46.498Z,10.40
2019-02-10T10:11:17.113Z,10.40
2019-02-10T10:13:48.000Z,10.50
2019-02-10T10:16:18.742Z,10.50
2019-02-10T10:18:49.572Z,10.50
2019-02-10T10:21:20.264Z,10.40
2019-02-10T10:23:50.950Z,10.40
2019-02-10T10:26:21.708Z,10.40
2019-02-10T10:28:52.736Z,10.50
2019-02-10T10:31:23.284Z,10.50
2019-02-10T10:33:53.893Z,10.50
2019-02-10T10:36:23.859Z,10.60
2019-02-10T10:38:54.264Z,10.60
2019-02-10T10:41:25.244Z,10.70
2019-02-10T10:43:55.917Z,10.70
2019-02-10T10:46:26.783Z,10.80
2019-02-10T10:48:57.747Z,10.90
2019-02-10T10:51:28.424Z,10.90
2019-02-10T10:53:59.171Z,10.90
2019-02-10T10:56:29.965Z,10.70
2019-02-10T10:59:00.507Z,10.60
2019-02-10T11:01:31.516Z,10.50
2019-02-10T11:04:02.083Z,10.50
2019-02-10T11:06:34.067Z,10.50
2019-02-10T11:09:05.787Z,10.60
2019-02-10T11:11:36.799Z,10.60
2019-02-10T11:14:07.708Z,10.70
2019-02-10T11:16:38.581Z,10.70
2019-02-10T11:19:09.064Z,10.80
2019-02-10T11:21:39.231Z,10.80
2019-02-10T11:24:09.657Z,10.80
2019-02-10T11:26:40.103Z,10.80
2019-02-10T11:29:10.734Z,10.80
2019-02-10T11:31:41.675Z,10.80
2019-02-10T11:34:12.007Z,10.80
2019-02-10T11:36:41.993Z,10.70
2019-02-10T11:39:12.901Z,10.70
2019-02-10T11:41:43.587Z,10.60
2019-02-10T11:44:14.108Z,10.50
2019-02-10T11:46:44.622Z,10.40
2019-02-10T11:49:14.700Z,10.40
2019-02-10T11:51:45.737Z,10.40
2019-02-10T11:54:18.375Z,10.40
2019-02-10T11:56:48.887Z,10.30
2019-02-10T11:59:19.476Z,10.30
2019-02-10T12:01:50.281Z,10.30
2019-02-10T12:04:21.552Z,10.30
2019-02-10T12:06:52.353Z,10.30
2019-02-10T12:09:23.372Z,10.30
2019-02-10T12:11:54.043Z,10.30
2019-02-10T12:14:25.101Z,10.30
2019-02-10T12:16:55.640Z,10.20
2019-02-10T12:19:26.277Z,10.20
2019-02-10T12:21:56.957Z,10.20
2019-02-10T12:24:27.765Z,10.20
2019-02-10T12:26:58.034Z,10.20
2019-02-10T12:29:28.811Z,10.20
2019-02-10T12:31:59.203Z,10.30
2019-02-10T12:34:29.791Z,10.30
2019-02-10T12:37:00.377Z,10.40
2019-02-10T12:39:31.366Z,10.40
2019-02-10T12:42:01.814Z,10.50
2019-02-10T12:44:32.263Z,10.50
2019-02-10T12:47:02.587Z,10.50
2019-02-10T12:49:32.735Z,10.60
2019-02-10T12:52:03.278Z,10.60
2019-02-10T12:54:34.106Z,10.60
2019-02-10T12:57:04.977Z,10.60
2019-02-10T12:59:35.840Z,10.60
2019-02-10T13:02:06.285Z,10.60
2019-02-10T13:04:37.275Z,10.70
2019-02-10T13:07:08.135Z,10.70
2019-02-10T13:09:39.166Z,10.70
2019-02-10T13:12:09.903Z,10.60
2019-02-10T13:14:40.746Z,10.60
2019-02-10T13:17:10.812Z,10.60
2019-02-10T13:19:41.511Z,10.60
2019-02-10T13:22:12.375Z,10.50
2019-02-10T13:24:42.918Z,10.40
2019-02-10T13:27:13.210Z,10.40
2019-02-10T13:29:43.704Z,10.30
2019-02-10T13:32:14.220Z,10.20
2019-02-10T13:34:44.740Z,10.20
2019-02-10T13:37:15.273Z,10.20
2019-02-10T13:39:45.608Z,10.10
2019-02-10T13:42:16.301Z,10.10
2019-02-10T13:44:47.300Z,10.00
2019-02-10T13:47:18.051Z,10.00
2019-02-10T13:49:48.870Z,10.00
2019-02-10T13:52:19.823Z,10.10
2019-02-10T13:54:50.670Z,10.10
2019-02-10T13:57:21.561Z,10.10
2019-02-10T13:59:51.972Z,10.10
2019-02-10T14:02:22.314Z,10.10
2019-02-10T14:04:53.132Z,10.00
2019-02-10T14:07:23.488Z,9.80
2019-02-10T14:09:54.394Z,9.70
2019-02-10T14:12:25.440Z,9.70
2019-02-10T14:14:56.442Z,9.70
2019-02-10T14:17:28.076Z,9.70
2019-02-10T14:19:58.882Z,9.60
2019-02-10T14:22:29.562Z,9.60
2019-02-10T14:24:59.860Z,9.60
2019-02-10T14:27:30.362Z,9.50
2019-02-10T14:30:01.144Z,9.50
2019-02-10T14:32:31.958Z,9.50
2019-02-10T14:35:02.935Z,9.50
2019-02-10T14:37:33.494Z,9.40
2019-02-10T14:40:04.800Z,9.40
2019-02-10T14:42:35.260Z,9.40
2019-02-10T14:45:05.976Z,9.40
2019-02-10T14:47:36.923Z,9.40
2019-02-10T14:50:09.129Z,9.30
2019-02-10T14:52:38.833Z,9.20
2019-02-10T14:55:09.191Z,9.20
2019-02-10T14:57:40.739Z,9.10
2019-02-10T15:00:12.432Z,9.10
2019-02-10T15:02:43.116Z,9.10
2019-02-10T15:05:13.511Z,9.10
2019-02-10T15:07:44.342Z,9.00
2019-02-10T15:10:15.108Z,9.00
2019-02-10T15:12:46.110Z,8.90
2019-02-10T15:15:16.614Z,8.80
2019-02-10T15:17:47.044Z,8.80
2019-02-10T15:20:17.806Z,8.70
2019-02-10T15:22:48.899Z,8.60
2019-02-10T15:25:19.276Z,8.60
2019-02-10T15:27:49.776Z,8.60
2019-02-10T15:30:20.475Z,8.60
2019-02-10T15:32:50.786Z,8.70
2019-02-10T15:35:21.386Z,9.00
2019-02-10T15:37:51.933Z,9.10
2019-02-10T15:40:22.395Z,9.20
2019-02-10T15:42:53.204Z,9.10
2019-02-10T15:45:24.133Z,9.00
2019-02-10T15:47:54.670Z,9.00
2019-02-10T15:50:25.155Z,8.80
2019-02-10T15:52:55.681Z,8.70
2019-02-10T15:55:25.950Z,8.60
2019-02-10T15:57:56.643Z,8.60
2019-02-10T16:00:27.216Z,8.50
2019-02-10T16:02:57.902Z,8.40
2019-02-10T16:05:28.633Z,8.40
2019-02-10T16:07:59.317Z,8.40
2019-02-10T16:10:29.740Z,8.40
2019-02-10T16:13:00.389Z,8.40
2019-02-10T16:15:31.285Z,8.30
2019-02-10T16:18:01.433Z,8.30
2019-02-10T16:20:31.801Z,8.20
2019-02-10T16:23:02.845Z,8.20
2019-02-10T16:25:33.897Z,8.20
2019-02-10T16:28:04.676Z,8.10
2019-02-10T16:30:34.795Z,8.00
2019-02-10T16:33:05.737Z,7.90
2019-02-10T16:35:36.358Z,7.70
2019-02-10T16:38:06.969Z,7.50
2019-02-10T16:40:37.097Z,7.40
2019-02-10T16:43:07.679Z,7.30
2019-02-10T16:45:38.401Z,7.30
2019-02-10T16:48:09.229Z,7.20
2019-02-10T16:50:39.871Z,7.20
2019-02-10T16:53:10.835Z,7.00
2019-02-10T16:55:41.589Z,7.00
2019-02-10T16:58:11.675Z,6.90
2019-02-10T17:00:41.961Z,6.80
2019-02-10T17:03:12.517Z,6.70
2019-02-10T17:05:42.933Z,6.70
2019-02-10T17:08:13.205Z,6.70
2019-02-10T17:10:43.714Z,6.70
2019-02-10T17:13:14.537Z,6.70
2019-02-10T17:15:45.439Z,6.70
2019-02-10T17:18:16.311Z,6.70
2019-02-10T17:20:47.211Z,6.70
2019-02-10T17:23:18.186Z,6.80
2019-02-10T17:25:48.749Z,6.80
2019-02-10T17:28:19.555Z,6.90
2019-02-10T17:30:51.811Z,6.90
2019-02-10T17:33:22.499Z,7.00
2019-02-10T17:35:53.192Z,6.90
2019-02-10T17:38:23.727Z,6.90
2019-02-10T17:41:04.973Z,6.80
2019-02-10T17:43:35.883Z,6.80
2019-02-10T17:46:06.194Z,6.70
2019-02-10T17:48:36.539Z,6.70
2019-02-10T17:51:07.207Z,6.60
2019-02-10T17:53:38.010Z,6.60
2019-02-10T17:56:08.273Z,6.60
2019-02-10T17:58:38.898Z,6.60
2019-02-10T18:01:09.523Z,6.60
2019-02-10T18:03:40.224Z,6.50
2019-02-10T18:06:10.748Z,6.60
2019-02-10T18:08:41.600Z,6.60
2019-02-10T18:11:12.566Z,6.60
2019-02-10T18:13:43.086Z,6.60
2019-02-10T18:16:35.868Z,6.70
2019-02-10T18:19:25.473Z,6.70
2019-02-10T18:22:18.270Z,6.70
2019-02-10T18:25:06.390Z,6.70
2019-02-10T18:27:54.747Z,6.70
2019-02-10T18:30:42.496Z,6.70
2019-02-10T18:33:37.795Z,6.80
2019-02-10T18:36:33.736Z,6.80
2019-02-10T18:39:21.271Z,6.80
2019-02-10T18:42:09.480Z,6.80
2019-02-10T18:45:01.569Z,6.80
2019-02-10T18:47:46.880Z,6.80
2019-02-10T18:50:34.356Z,6.80
2019-02-10T18:53:12.004Z,6.80
2019-02-10T18:56:07.564Z,6.90
2019-02-10T18:58:54.638Z,6.90
2019-02-10T19:01:36.936Z,6.80
2019-02-10T19:04:38.473Z,6.80
2019-02-10T19:07:26.387Z,6.80
2019-02-10T19:10:03.274Z,6.70
2019-02-10T19:12:46.306Z,6.80
2019-02-10T19:15:34.476Z,6.80
2019-02-10T19:18:21.244Z,6.80
2019-02-10T19:21:00.592Z,6.80
2019-02-10T19:23:53.134Z,6.80
2019-02-10T19:26:35.936Z,6.80
2019-02-10T19:29:16.763Z,6.80
2019-02-10T19:32:06.468Z,6.80
2019-02-10T19:35:14.117Z,6.70
2019-02-10T19:37:58.128Z,6.70
2019-02-10T19:40:35.604Z,6.70
2019-02-10T19:43:16.972Z,6.60
2019-02-10T19:45:56.713Z,6.60
2019-02-10T19:48:46.106Z,6.60
2019-02-10T19:51:31.572Z,6.70
2019-02-10T19:54:09.978Z,6.60
2019-02-10T19:56:57.554Z,6.60
2019-02-10T19:59:53.398Z,6.50
2019-02-10T20:02:31.336Z,6.50
2019-02-10T20:05:35.835Z,6.50
2019-02-10T20:08:28.535Z,6.50
2019-02-10T20:11:06.000Z,6.50
2019-02-10T20:13:54.324Z,6.40
2019-02-10T20:16:32.273Z,6.30
2019-02-10T20:19:20.711Z,6.30
2019-02-10T20:22:08.407Z,6.20
2019-02-10T20:25:06.925Z,6.20
2019-02-10T20:27:55.971Z,6.20
2019-02-10T20:30:48.604Z,6.20
2019-02-10T20:33:37.182Z,6.20
2019-02-10T20:36:14.763Z,6.20
2019-02-10T20:39:05.159Z,6.20
2019-02-10T20:41:43.404Z,6.30
2019-02-10T20:44:22.674Z,6.30
2019-02-10T20:47:03.143Z,6.20
2019-02-10T20:49:48.943Z,6.20
2019-02-10T20:52:45.085Z,6.30
2019-02-10T20:55:14.643Z,6.30
2019-02-10T20:58:04.425Z,6.40
2019-02-10T21:00:56.255Z,6.40
2019-02-10T21:03:40.675Z,6.40
2019-02-10T21:06:25.798Z,6.40
2019-02-10T21:09:13.793Z,6.50
2019-02-10T21:12:20.989Z,6.50
2019-02-10T21:14:59.298Z,6.50
2019-02-10T21:17:36.245Z,6.50
2019-02-10T21:20:26.333Z,6.60
2019-02-10T21:23:07.617Z,6.50
2019-02-10T21:25:52.782Z,6.60
2019-02-10T21:28:45.201Z,6.60
2019-02-10T21:31:52.943Z,6.50
2019-02-10T21:34:40.662Z,6.50
2019-02-10T21:37:24.663Z,6.50
2019-02-10T21:40:12.585Z,6.50
2019-02-10T21:42:49.809Z,6.50
2019-02-10T21:45:48.697Z,6.50
2019-02-10T21:48:44.162Z,6.50
2019-02-10T21:51:15.158Z,6.50
2019-02-10T21:53:46.061Z,6.50
2019-02-10T21:56:16.604Z,6.50
2019-02-10T21:58:47.229Z,6.50
2019-02-10T22:01:17.899Z,6.40
2019-02-10T22:03:48.837Z,6.40
2019-02-10T22:06:19.707Z,6.40
2019-02-10T22:08:50.540Z,6.40
2019-02-10T22:11:21.227Z,6.30
2019-02-10T22:13:52.157Z,6.30
2019-02-10T22:16:22.421Z,6.30
2019-02-10T22:18:52.752Z,6.30
2019-02-10T22:21:23.693Z,6.30
2019-02-10T22:23:54.303Z,6.20
2019-02-10T22:26:24.545Z,6.20
2019-02-10T22:28:55.343Z,6.20
2019-02-10T22:31:26.066Z,6.20
2019-02-10T22:33:56.472Z,6.20
2019-02-10T22:36:27.012Z,6.20
2019-02-10T22:38:57.335Z,6.20
2019-02-10T22:41:28.378Z,6.10
2019-02-10T22:43:58.561Z,6.10
2019-02-10T22:46:29.152Z,6.10
2019-02-10T22:48:59.521Z,6.10
2019-02-10T22:51:30.281Z,6.10
2019-02-10T22:54:00.890Z,6.10
2019-02-10T22:56:31.760Z,6.10
2019-02-10T22:59:02.043Z,6.00
2019-02-10T23:01:32.854Z,6.00
2019-02-10T23:04:03.196Z,6.00
2019-02-10T23:06:34.004Z,6.00
2019-02-10T23:09:08.255Z,6.00
2019-02-10T23:11:39.407Z,6.10
2019-02-10T23:14:10.014Z,6.10
2019-02-10T23:16:40.889Z,6.10
2019-02-10T23:19:11.702Z,6.10
2019-02-10T23:21:41.882Z,6.10
2019-02-10T23:24:12.520Z,6.20
2019-02-10T23:26:42.571Z,6.20
2019-02-10T23:29:12.942Z,6.10
2019-02-10T23:31:43.366Z,6.20
2019-02-10T23:34:13.639Z,6.20
2019-02-10T23:36:44.184Z,6.20
2019-02-10T23:39:15.810Z,6.20
2019-02-10T23:41:46.100Z,6.10
2019-02-10T23:44:17.144Z,6.10
2019-02-10T23:46:47.808Z,6.10
2019-02-10T23:49:18.792Z,6.10
2019-02-10T23:51:49.451Z,6.10
2019-02-10T23:54:19.698Z,6.10
2019-02-10T23:56:50.492Z,6.10
2019-02-10T23:59:21.340Z,6.10
